createdAt,value
2022-11-14T00:03:23.847Z,53.22
2022-11-14T00:10:30.343Z,53.28
2022-11-14T00:17:34.484Z,53.10
2022-11-14T00:24:38.653Z,53.51
2022-11-14T00:31:45.896Z,53.83
2022-11-14T00:38:49.870Z,53.75
2022-11-14T00:45:53.941Z,53.58
2022-11-14T00:53:00.779Z,53.81
2022-11-14T01:00:05.330Z,53.74
2022-11-14T01:07:09.339Z,53.62
2022-11-14T01:14:16.051Z,53.62
2022-11-14T01:21:20.280Z,53.43
2022-11-14T01:28:24.798Z,53.51
2022-11-14T01:35:31.458Z,53.67
2022-11-14T01:42:35.666Z,52.77
2022-11-14T01:49:43.933Z,53.55
2022-11-14T01:56:56.021Z,53.63
2022-11-14T02:04:00.887Z,53.45
2022-11-14T02:11:04.984Z,53.64
2022-11-14T02:18:12.430Z,53.66
2022-11-14T02:25:21.836Z,53.59
2022-11-14T02:32:25.621Z,53.57
2022-11-14T02:39:30.194Z,53.64
2022-11-14T02:46:37.202Z,53.56
2022-11-14T02:53:41.307Z,53.37
2022-11-14T03:01:13.688Z,53.53
2022-11-14T03:08:12.191Z,53.54
2022-11-14T03:15:16.184Z,53.55
2022-11-14T03:22:20.038Z,53.64
2022-11-14T03:29:26.630Z,53.68
2022-11-14T03:36:30.634Z,53.67
2022-11-14T03:43:36.278Z,53.83
2022-11-14T04:04:31.446Z,53.92
2022-11-14T04:11:35.522Z,53.71
2022-11-14T04:18:39.480Z,53.80
2022-11-14T04:25:47.456Z,53.85
2022-11-14T04:32:51.292Z,53.71
2022-11-14T04:39:58.607Z,53.76
2022-11-14T04:47:05.069Z,53.77
2022-11-14T04:54:09.622Z,53.62
2022-11-14T05:01:15.304Z,53.97
2022-11-14T05:08:21.973Z,53.71
2022-11-14T05:15:25.817Z,53.74
2022-11-14T05:22:30.232Z,53.65
2022-11-14T05:29:36.940Z,53.92
2022-11-14T05:36:40.721Z,53.74
2022-11-14T05:43:45.448Z,53.74
2022-11-14T05:50:51.843Z,53.99
2022-11-14T05:57:55.974Z,53.91
2022-11-14T06:04:59.839Z,53.92
2022-11-14T06:12:07.917Z,54.36
2022-11-14T06:19:11.862Z,54.30
2022-11-14T06:26:24.408Z,54.18
2022-11-14T06:33:33.356Z,54.12
2022-11-14T06:40:37.145Z,54.26
2022-11-14T06:47:41.189Z,54.16
2022-11-14T06:54:47.769Z,54.30
2022-11-14T07:01:51.803Z,54.22
2022-11-14T07:08:57.176Z,54.26
2022-11-14T07:16:04.824Z,54.15
2022-11-14T07:23:08.978Z,54.37
2022-11-14T07:30:14.588Z,54.25
2022-11-14T07:37:20.993Z,54.38
2022-11-14T07:44:24.714Z,54.23
2022-11-14T07:51:29.045Z,54.10
2022-11-14T07:58:37.561Z,54.23
2022-11-14T08:05:41.725Z,54.24
2022-11-14T08:12:45.774Z,54.34
2022-11-14T08:19:52.340Z,54.32
2022-11-14T08:26:56.193Z,54.36
2022-11-14T08:34:00.467Z,54.36
2022-11-14T08:41:08.411Z,54.57
2022-11-14T08:48:13.633Z,54.49
2022-11-14T08:55:18.253Z,54.35
2022-11-14T09:02:24.896Z,54.56
2022-11-14T09:09:28.799Z,53.98
2022-11-14T09:16:33.687Z,54.11
2022-11-14T09:23:40.468Z,54.18
2022-11-14T09:30:44.686Z,54.13
2022-11-14T09:37:48.915Z,53.95
2022-11-14T09:45:03.419Z,54.16
2022-11-14T09:52:20.456Z,53.87
2022-11-14T09:59:24.786Z,53.71
2022-11-14T10:06:38.077Z,53.90
2022-11-14T10:14:08.932Z,53.83
2022-11-14T10:21:37.379Z,53.86
2022-11-14T10:29:05.168Z,53.95
2022-11-14T10:36:17.589Z,53.85
2022-11-14T10:43:30.178Z,53.72
2022-11-14T10:50:45.656Z,53.82
2022-11-14T10:57:50.228Z,53.51
2022-11-14T11:04:56.820Z,54.05
2022-11-14T11:12:05.493Z,53.83
2022-11-14T11:19:26.688Z,53.75
2022-11-14T11:26:35.214Z,53.91
2022-11-14T11:33:42.991Z,53.78
2022-11-14T11:40:49.740Z,53.87
2022-11-14T11:48:01.736Z,53.84
2022-11-14T11:55:19.071Z,53.98
2022-11-14T12:02:26.071Z,53.16
2022-11-14T12:10:08.720Z,53.69
2022-11-14T12:17:45.947Z,53.47
2022-11-14T12:25:41.191Z,53.89
2022-11-14T12:32:49.409Z,53.31
2022-11-14T12:40:00.922Z,53.52
2022-11-14T12:47:23.745Z,53.67
2022-11-14T12:54:47.007Z,53.84
2022-11-14T13:02:09.105Z,53.48
2022-11-14T13:09:40.096Z,53.50
2022-11-14T13:16:56.544Z,53.24
2022-11-14T13:24:01.143Z,53.24
2022-11-14T13:31:23.132Z,53.33
2022-11-14T13:39:07.976Z,53.52
2022-11-14T13:46:33.492Z,53.57
2022-11-14T13:53:37.626Z,52.95
2022-11-14T14:01:07.872Z,53.43
2022-11-14T14:08:36.405Z,53.40
2022-11-14T14:15:49.652Z,53.24
2022-11-14T14:23:09.749Z,53.45
2022-11-14T14:30:19.005Z,53.27
2022-11-14T14:37:26.161Z,53.25
2022-11-14T14:44:34.744Z,53.62
2022-11-14T14:51:42.869Z,53.38
2022-11-14T14:58:47.255Z,53.46
2022-11-14T15:05:51.596Z,53.22
2022-11-14T15:12:59.819Z,53.41
2022-11-14T15:20:04.114Z,53.33
2022-11-14T15:27:14.366Z,53.44
2022-11-14T15:34:34.084Z,53.74
2022-11-14T15:41:38.392Z,54.12
2022-11-14T15:48:44.908Z,54.61
2022-11-14T15:55:51.788Z,55.06
2022-11-14T16:02:59.878Z,55.28
2022-11-14T16:10:06.022Z,55.81
2022-11-14T16:17:16.910Z,56.44
2022-11-14T16:24:23.282Z,56.32
2022-11-14T16:31:27.802Z,56.21
2022-11-14T16:38:34.497Z,56.41
2022-11-14T16:45:43.816Z,56.39
2022-11-14T16:52:47.599Z,56.59
2022-11-14T16:59:54.571Z,56.86
2022-11-14T17:06:58.629Z,56.84
2022-11-14T17:14:02.720Z,56.85
2022-11-14T17:21:15.115Z,56.83
2022-11-14T17:28:19.071Z,56.47
2022-11-14T17:35:23.520Z,56.48
2022-11-14T17:42:30.604Z,56.62
2022-11-14T17:49:35.345Z,56.12
2022-11-14T17:56:44.871Z,56.10
2022-11-14T18:03:54.122Z,56.13
2022-11-14T18:11:03.606Z,56.50
2022-11-14T18:18:07.894Z,56.69
2022-11-14T18:25:14.750Z,56.66
2022-11-14T18:32:18.625Z,56.68
2022-11-14T18:39:22.836Z,56.71
2022-11-14T18:46:36.954Z,56.66
2022-11-14T18:53:41.853Z,56.69
2022-11-14T19:00:46.059Z,56.63
2022-11-14T19:07:55.242Z,56.78
2022-11-14T19:14:59.181Z,56.59
2022-11-14T19:22:04.093Z,56.71
2022-11-14T19:29:13.444Z,56.81
2022-11-14T19:36:44.976Z,56.57
2022-11-14T19:43:45.213Z,56.67
2022-11-14T19:50:52.381Z,56.73
2022-11-14T19:57:56.366Z,56.64
2022-11-14T20:05:00.120Z,56.88
2022-11-14T20:12:08.644Z,56.97
2022-11-14T20:19:13.683Z,56.62
2022-11-14T20:26:19.596Z,56.77
2022-11-14T20:33:26.648Z,57.04
2022-11-14T20:40:30.688Z,56.29
2022-11-14T20:47:35.047Z,56.84
2022-11-14T20:54:41.699Z,56.88
2022-11-14T21:01:46.031Z,57.09
2022-11-14T21:08:50.013Z,56.85
2022-11-14T21:15:59.812Z,57.08
2022-11-14T21:23:03.576Z,56.99
2022-11-14T21:30:09.053Z,57.04
2022-11-14T21:37:15.580Z,57.11
2022-11-14T21:44:21.510Z,56.67
2022-11-14T21:51:28.020Z,56.81
2022-11-14T21:58:36.788Z,56.64
2022-11-14T22:05:41.121Z,56.70
2022-11-14T22:12:45.449Z,56.44
2022-11-14T22:19:52.241Z,56.44
2022-11-14T22:26:56.856Z,56.44
2022-11-14T22:34:01.975Z,56.58
2022-11-14T22:41:17.445Z,56.72
2022-11-14T22:48:21.632Z,56.37
2022-11-14T22:55:25.599Z,56.18
2022-11-14T23:02:32.309Z,56.25
2022-11-14T23:09:36.504Z,56.04
2022-11-14T23:16:40.342Z,55.76
2022-11-14T23:23:47.136Z,55.70
2022-11-14T23:30:51.372Z,55.22
2022-11-14T23:37:55.529Z,55.25
2022-11-14T23:45:02.149Z,55.26
2022-11-14T23:52:07.044Z,54.97
2022-11-14T23:59:11.148Z,54.66
